createdAt,value
2022-08-26T00:02:40.626Z,14.65
2022-08-26T00:07:43.627Z,19.80
2022-08-26T00:12:45.345Z,21.05
2022-08-26T00:17:48.442Z,19.75
2022-08-26T00:22:50.031Z,19.00
2022-08-26T00:27:52.237Z,20.77
2022-08-26T00:32:54.954Z,20.50
2022-08-26T00:37:57.912Z,20.63
2022-08-26T00:43:00.791Z,21.23
2022-08-26T00:48:03.847Z,22.88
2022-08-26T00:53:21.484Z,21.23
2022-08-26T00:58:28.055Z,20.67
2022-08-26T01:03:31.383Z,21.00
2022-08-26T01:08:33.054Z,20.73
2022-08-26T01:13:36.496Z,21.25
2022-08-26T01:18:43.303Z,24.95
2022-08-26T01:23:48.552Z,18.30
2022-08-26T01:28:52.049Z,24.65
2022-08-26T01:34:07.265Z,18.20
2022-08-26T01:39:11.562Z,20.63
2022-08-26T01:44:20.545Z,22.38
2022-08-26T01:49:23.202Z,22.60
2022-08-26T01:54:27.814Z,23.27
2022-08-26T01:59:29.898Z,18.02
2022-08-26T02:04:37.402Z,17.88
2022-08-26T02:09:41.209Z,20.70
2022-08-26T02:14:47.164Z,23.58
2022-08-26T02:19:51.175Z,16.83
2022-08-26T02:24:56.461Z,23.30
2022-08-26T02:30:22.158Z,23.33
2022-08-26T02:35:24.194Z,19.75
2022-08-26T02:40:30.345Z,19.30
2022-08-26T02:45:33.350Z,20.17
2022-08-26T02:50:35.625Z,20.30
2022-08-26T02:55:37.344Z,19.58
2022-08-26T03:00:39.821Z,18.88
2022-08-26T03:05:54.946Z,23.55
2022-08-26T03:10:56.484Z,20.38
2022-08-26T03:15:58.142Z,15.85
2022-08-26T03:21:07.977Z,18.05
2022-08-26T03:26:11.025Z,24.10
2022-08-26T03:31:12.664Z,18.83
2022-08-26T03:36:15.356Z,15.93
2022-08-26T03:41:18.008Z,17.55
2022-08-26T03:46:20.599Z,20.20
2022-08-26T03:51:22.621Z,19.15
2022-08-26T03:56:26.208Z,25.08
2022-08-26T04:01:28.648Z,21.90
2022-08-26T04:06:33.307Z,21.80
2022-08-26T04:11:37.806Z,23.13
2022-08-26T04:16:41.943Z,27.35
2022-08-26T04:21:46.381Z,16.08
2022-08-26T04:26:48.784Z,21.70
2022-08-26T04:31:50.389Z,20.92
2022-08-26T04:36:58.066Z,25.10
2022-08-26T04:42:00.159Z,22.55
2022-08-26T04:47:04.688Z,17.63
2022-08-26T04:52:06.302Z,22.17
2022-08-26T04:57:09.330Z,19.17
2022-08-26T05:02:11.484Z,16.88
2022-08-26T05:07:13.075Z,18.65
2022-08-26T05:12:14.683Z,18.15
2022-08-26T05:17:18.008Z,21.40
2022-08-26T05:22:20.161Z,21.30
2022-08-26T05:27:22.065Z,18.40
2022-08-26T05:32:23.642Z,19.02
2022-08-26T05:37:25.328Z,18.38
2022-08-26T05:42:27.094Z,19.00
2022-08-26T05:47:29.959Z,18.25
2022-08-26T05:52:33.095Z,25.25
2022-08-26T05:57:39.938Z,19.20
2022-08-26T06:02:43.803Z,24.50
2022-08-26T06:08:08.699Z,19.17
2022-08-26T06:13:12.285Z,20.13
2022-08-26T06:18:15.581Z,17.83
2022-08-26T06:23:36.947Z,18.85
2022-08-26T06:28:43.664Z,19.00
2022-08-26T06:33:47.211Z,20.55
2022-08-26T06:38:50.187Z,19.55
2022-08-26T06:43:52.352Z,21.92
2022-08-26T06:48:55.059Z,18.13
2022-08-26T06:53:59.523Z,23.25
2022-08-26T06:59:01.741Z,18.55
2022-08-26T07:04:10.475Z,23.08
2022-08-26T07:09:12.353Z,18.30
2022-08-26T07:14:16.411Z,20.35
2022-08-26T07:19:27.579Z,20.83
2022-08-26T07:24:35.421Z,20.60
2022-08-26T07:29:39.533Z,22.17
2022-08-26T07:34:41.849Z,21.15
2022-08-26T07:39:44.290Z,22.02
2022-08-26T07:44:45.928Z,30.35
2022-08-26T07:49:47.461Z,24.50
2022-08-26T07:54:56.097Z,22.85
2022-08-26T07:59:58.337Z,27.67
2022-08-26T08:04:59.908Z,26.52
2022-08-26T08:10:01.577Z,21.42
2022-08-26T08:15:03.493Z,29.35
2022-08-26T08:20:06.869Z,27.27
2022-08-26T08:25:10.572Z,29.55
2022-08-26T08:30:14.072Z,24.58
2022-08-26T08:35:18.121Z,25.90
2022-08-26T08:40:20.851Z,20.77
2022-08-26T08:45:36.604Z,25.75
2022-08-26T08:50:47.698Z,19.88
2022-08-26T08:56:17.090Z,31.55
2022-08-26T09:01:31.177Z,29.67
2022-08-26T09:06:36.830Z,23.48
2022-08-26T09:11:43.361Z,21.30
2022-08-26T09:16:45.123Z,19.45
2022-08-26T09:21:55.505Z,20.10
2022-08-26T09:26:59.317Z,24.00
2022-08-26T09:32:24.189Z,21.63
2022-08-26T09:37:35.549Z,27.80
2022-08-26T09:42:37.199Z,26.70
2022-08-26T09:47:48.083Z,28.02
2022-08-26T09:53:28.723Z,26.95
2022-08-26T09:58:35.419Z,32.35
2022-08-26T10:03:39.650Z,24.30
2022-08-26T10:08:47.462Z,28.83
2022-08-26T10:13:58.618Z,21.45
2022-08-26T10:19:08.645Z,24.92
2022-08-26T10:24:11.522Z,25.70
2022-08-26T10:29:20.971Z,25.35
2022-08-26T10:34:24.282Z,17.02
2022-08-26T10:39:31.888Z,25.13
2022-08-26T10:44:35.064Z,17.95
2022-08-26T10:49:37.313Z,20.45
2022-08-26T10:54:46.834Z,21.75
2022-08-26T11:00:44.156Z,22.98
2022-08-26T11:05:45.881Z,21.27
2022-08-26T11:10:50.599Z,23.92
2022-08-26T11:15:52.085Z,16.35
2022-08-26T11:20:54.411Z,19.65
2022-08-26T11:25:56.050Z,15.75
2022-08-26T11:30:58.782Z,22.40
2022-08-26T11:36:00.605Z,16.00
2022-08-26T11:41:20.280Z,17.08
2022-08-26T11:46:27.315Z,13.90
2022-08-26T11:51:31.591Z,13.43
2022-08-26T11:56:34.982Z,12.80
2022-08-26T12:01:49.116Z,12.55
2022-08-26T12:06:51.664Z,7.43
2022-08-26T12:12:18.274Z,10.23
2022-08-26T12:17:27.233Z,9.13
2022-08-26T12:22:31.123Z,10.25
2022-08-26T12:27:35.437Z,13.32
2022-08-26T12:32:57.140Z,7.45
2022-08-26T12:38:00.081Z,14.27
2022-08-26T12:43:04.545Z,10.20
2022-08-26T12:48:10.458Z,10.02
2022-08-26T12:53:22.560Z,12.15
2022-08-26T12:58:34.416Z,10.50
2022-08-26T13:03:40.314Z,12.60
2022-08-26T13:08:49.343Z,11.95
2022-08-26T13:14:07.231Z,10.20
2022-08-26T13:19:12.137Z,10.40
2022-08-26T13:24:23.139Z,16.08
2022-08-26T13:29:24.696Z,9.60
2022-08-26T13:34:27.117Z,6.63
2022-08-26T13:39:28.855Z,12.40
2022-08-26T13:44:30.533Z,9.18
2022-08-26T13:49:32.739Z,9.68
2022-08-26T13:54:34.392Z,14.70
2022-08-26T13:59:36.027Z,12.30
2022-08-26T14:04:38.303Z,10.27
2022-08-26T14:09:39.929Z,9.15
2022-08-26T14:14:41.913Z,11.10
2022-08-26T14:19:45.733Z,13.20
2022-08-26T14:24:47.405Z,13.88
2022-08-26T14:29:49.072Z,11.50
2022-08-26T14:34:51.041Z,14.40
2022-08-26T14:39:52.792Z,9.05
2022-08-26T14:44:57.635Z,10.27
2022-08-26T14:49:59.246Z,11.25
2022-08-26T14:55:00.871Z,10.50
2022-08-26T15:00:02.688Z,7.78
2022-08-26T15:05:05.147Z,9.02
2022-08-26T15:10:08.517Z,11.18
2022-08-26T15:15:11.446Z,11.13
2022-08-26T15:20:13.128Z,8.63
2022-08-26T15:25:15.407Z,11.10
2022-08-26T15:30:18.275Z,11.15
2022-08-26T15:35:19.873Z,10.02
2022-08-26T15:40:22.095Z,9.45
2022-08-26T15:45:25.915Z,10.48
2022-08-26T15:50:29.049Z,5.70
2022-08-26T15:55:30.646Z,7.18
2022-08-26T16:00:33.198Z,8.10
2022-08-26T16:05:39.243Z,7.50
2022-08-26T16:10:49.208Z,8.18
2022-08-26T16:15:52.826Z,9.70
2022-08-26T16:21:08.818Z,13.23
2022-08-26T16:26:19.206Z,6.32
2022-08-26T16:31:21.600Z,7.72
2022-08-26T16:36:23.314Z,8.48
2022-08-26T16:41:28.355Z,9.98
2022-08-26T16:46:30.215Z,7.50
2022-08-26T16:51:32.530Z,6.32
2022-08-26T16:56:39.576Z,10.98
2022-08-26T17:01:41.238Z,6.07
2022-08-26T17:06:42.961Z,10.43
2022-08-26T17:11:44.681Z,6.32
2022-08-26T17:16:46.951Z,8.70
2022-08-26T17:21:48.804Z,8.70
2022-08-26T17:26:55.526Z,6.68
2022-08-26T17:31:57.367Z,8.43
2022-08-26T17:36:59.430Z,8.55
2022-08-26T17:42:01.027Z,9.10
2022-08-26T17:47:02.575Z,7.32
2022-08-26T17:52:07.479Z,9.32
2022-08-26T17:57:12.592Z,10.70
2022-08-26T18:02:14.186Z,7.03
2022-08-26T18:07:16.653Z,7.20
2022-08-26T18:12:18.257Z,7.55
2022-08-26T18:17:19.944Z,7.15
2022-08-26T18:22:23.169Z,5.90
2022-08-26T18:27:24.737Z,7.15
2022-08-26T18:32:26.345Z,7.13
2022-08-26T18:37:30.949Z,8.68
2022-08-26T18:42:33.610Z,9.02
2022-08-26T18:47:35.447Z,8.35
2022-08-26T18:52:37.164Z,9.05
2022-08-26T18:57:38.755Z,8.75
2022-08-26T19:02:40.344Z,8.00
2022-08-26T19:07:42.518Z,10.07
2022-08-26T19:12:47.274Z,9.38
2022-08-26T19:17:53.771Z,6.38
2022-08-26T19:22:57.421Z,8.65
2022-08-26T19:28:01.234Z,8.35
2022-08-26T19:33:05.218Z,6.97
2022-08-26T19:38:07.794Z,7.45
2022-08-26T19:43:10.628Z,11.70
2022-08-26T19:48:13.721Z,9.05
2022-08-26T19:53:15.425Z,7.97
2022-08-26T19:58:17.000Z,7.07
2022-08-26T20:03:18.583Z,8.38
2022-08-26T20:08:22.565Z,9.45
2022-08-26T20:13:24.346Z,10.20
2022-08-26T20:18:44.408Z,6.40
2022-08-26T20:23:45.987Z,8.65
2022-08-26T20:28:47.678Z,9.10
2022-08-26T20:33:52.834Z,8.57
2022-08-26T20:38:55.200Z,8.02
2022-08-26T20:43:57.418Z,5.60
2022-08-26T20:48:58.998Z,7.18
2022-08-26T20:54:02.330Z,6.10
2022-08-26T20:59:05.450Z,7.10
2022-08-26T21:04:09.892Z,8.90
2022-08-26T21:09:12.792Z,7.35
2022-08-26T21:14:17.289Z,8.88
2022-08-26T21:19:19.146Z,8.82
2022-08-26T21:24:21.321Z,15.38
2022-08-26T21:29:23.254Z,10.85
2022-08-26T21:34:24.924Z,7.45
2022-08-26T21:39:26.547Z,11.65
2022-08-26T21:44:28.195Z,8.88
2022-08-26T21:49:29.775Z,11.57
2022-08-26T21:54:32.036Z,9.32
2022-08-26T21:59:33.797Z,8.73
2022-08-26T22:04:35.818Z,11.93
2022-08-26T22:09:37.550Z,11.43
2022-08-26T22:14:40.941Z,8.77
2022-08-26T22:19:46.260Z,8.68
2022-08-26T22:24:48.357Z,7.82
2022-08-26T22:29:50.756Z,8.82
2022-08-26T22:34:52.399Z,8.95
2022-08-26T22:39:54.559Z,7.50
2022-08-26T22:44:56.225Z,8.52
2022-08-26T22:49:59.375Z,8.68
2022-08-26T22:55:00.966Z,9.25
2022-08-26T23:00:03.150Z,10.10
2022-08-26T23:05:05.298Z,7.93
2022-08-26T23:10:08.461Z,10.43
2022-08-26T23:15:11.786Z,7.13
2022-08-26T23:20:14.860Z,11.55
2022-08-26T23:25:17.109Z,7.78
2022-08-26T23:30:22.485Z,6.03
2022-08-26T23:35:24.687Z,8.40
2022-08-26T23:40:32.516Z,8.48
2022-08-26T23:45:35.013Z,8.75
2022-08-26T23:50:55.397Z,9.55
2022-08-26T23:55:57.059Z,9.35
